createdAt,value
2023-05-04T00:02:28.274Z,9.80
2023-05-04T00:08:21.783Z,10.00
2023-05-04T00:14:16.731Z,9.90
2023-05-04T00:20:10.675Z,9.60
2023-05-04T00:26:04.277Z,9.80
2023-05-04T00:31:59.220Z,9.50
2023-05-04T00:37:52.882Z,9.40
2023-05-04T00:43:46.931Z,9.20
2023-05-04T00:49:42.005Z,9.00
2023-05-04T00:55:37.818Z,9.30
2023-05-04T01:01:31.006Z,9.60
2023-05-04T01:07:31.467Z,9.60
2023-05-04T01:13:27.415Z,9.50
2023-05-04T01:19:20.513Z,9.30
2023-05-04T01:25:15.570Z,8.80
2023-05-04T01:31:11.846Z,8.80
2023-05-04T01:37:06.159Z,8.40
2023-05-04T01:43:00.569Z,8.40
2023-05-04T01:48:53.623Z,8.70
2023-05-04T01:54:48.662Z,8.40
2023-05-04T02:00:43.444Z,8.50
2023-05-04T02:06:36.941Z,8.40
2023-05-04T02:12:29.979Z,8.30
2023-05-04T02:18:26.352Z,8.30
2023-05-04T02:24:19.392Z,8.10
2023-05-04T02:30:14.528Z,8.30
2023-05-04T02:36:09.853Z,7.80
2023-05-04T02:42:03.438Z,7.60
2023-05-04T02:47:56.728Z,7.70
2023-05-04T02:53:51.578Z,7.80
2023-05-04T02:59:45.083Z,8.00
2023-05-04T03:05:38.529Z,7.70
2023-05-04T03:11:33.355Z,7.80
2023-05-04T03:17:26.473Z,7.50
2023-05-04T03:23:21.306Z,7.50
2023-05-04T03:29:16.142Z,7.50
2023-05-04T03:35:10.275Z,7.50
2023-05-04T03:41:04.286Z,7.60
2023-05-04T03:46:59.138Z,7.50
2023-05-04T03:52:52.200Z,7.30
2023-05-04T03:58:48.172Z,7.20
2023-05-04T04:04:47.436Z,7.40
2023-05-04T04:10:41.915Z,7.50
2023-05-04T04:16:35.108Z,7.30
2023-05-04T04:22:29.524Z,7.40
2023-05-04T04:28:23.282Z,7.40
2023-05-04T04:34:16.596Z,7.60
2023-05-04T04:40:12.029Z,7.90
2023-05-04T04:46:05.753Z,8.30
2023-05-04T04:51:58.783Z,8.50
2023-05-04T04:57:54.211Z,8.60
2023-05-04T05:03:47.475Z,8.60
2023-05-04T05:09:40.962Z,8.70
2023-05-04T05:15:35.398Z,8.80
2023-05-04T05:21:28.496Z,8.80
2023-05-04T05:27:21.630Z,8.80
2023-05-04T05:33:16.908Z,8.70
2023-05-04T05:39:12.249Z,8.90
2023-05-04T05:45:06.056Z,9.10
2023-05-04T05:51:00.935Z,9.20
2023-05-04T05:56:54.204Z,9.30
2023-05-04T06:02:47.515Z,9.40
2023-05-04T06:08:42.477Z,9.40
2023-05-04T06:14:35.449Z,9.60
2023-05-04T06:20:29.052Z,9.70
2023-05-04T06:26:23.564Z,9.90
2023-05-04T06:32:16.684Z,10.00
2023-05-04T06:38:10.044Z,10.10
2023-05-04T06:44:05.496Z,10.20
2023-05-04T06:49:58.836Z,10.40
2023-05-04T06:55:52.278Z,10.50
2023-05-04T07:01:47.490Z,10.60
2023-05-04T07:07:40.538Z,10.80
2023-05-04T07:13:33.537Z,10.80
2023-05-04T07:19:28.106Z,11.00
2023-05-04T07:25:21.340Z,11.20
2023-05-04T07:31:14.635Z,11.30
2023-05-04T07:37:09.316Z,11.30
2023-05-04T07:43:02.300Z,11.50
2023-05-04T07:48:55.263Z,11.50
2023-05-04T07:54:53.513Z,11.60
2023-05-04T08:00:46.687Z,11.80
2023-05-04T08:06:40.549Z,11.90
2023-05-04T08:12:35.043Z,12.00
2023-05-04T08:18:29.404Z,12.10
2023-05-04T08:24:22.647Z,12.20
2023-05-04T08:30:18.015Z,12.30
2023-05-04T08:36:11.340Z,12.40
2023-05-04T08:42:04.599Z,12.60
2023-05-04T08:47:59.019Z,12.70
2023-05-04T08:53:52.845Z,12.80
2023-05-04T08:59:50.298Z,12.90
2023-05-04T09:05:46.293Z,13.00
2023-05-04T09:11:39.297Z,13.20
2023-05-04T09:17:32.335Z,13.30
2023-05-04T09:23:27.501Z,13.40
2023-05-04T09:29:22.365Z,13.50
2023-05-04T09:35:25.662Z,13.80
2023-05-04T09:41:34.458Z,14.00
2023-05-04T09:47:34.512Z,14.20
2023-05-04T09:53:30.293Z,14.30
2023-05-04T09:59:30.433Z,14.50
2023-05-04T10:05:24.157Z,14.60
2023-05-04T10:11:19.326Z,15.10
2023-05-04T10:17:22.430Z,15.80
2023-05-04T10:23:35.235Z,15.60
2023-05-04T10:29:31.021Z,15.40
2023-05-04T10:35:26.793Z,15.50
2023-05-04T10:41:22.058Z,15.80
2023-05-04T10:47:15.662Z,16.40
2023-05-04T10:53:10.263Z,17.10
2023-05-04T10:59:10.540Z,17.90
2023-05-04T11:05:05.372Z,19.00
2023-05-04T11:11:05.412Z,19.40
2023-05-04T11:17:23.866Z,19.60
2023-05-04T11:23:20.603Z,20.00
2023-05-04T11:29:15.155Z,20.20
2023-05-04T11:35:10.489Z,19.80
2023-05-04T11:41:04.041Z,19.90
2023-05-04T11:46:58.509Z,20.30
2023-05-04T11:52:51.753Z,21.00
2023-05-04T11:58:45.151Z,21.10
2023-05-04T12:04:39.480Z,21.20
2023-05-04T12:10:35.037Z,20.50
2023-05-04T12:16:28.057Z,20.90
2023-05-04T12:22:29.509Z,20.90
2023-05-04T12:28:25.470Z,20.70
2023-05-04T12:34:18.692Z,20.30
2023-05-04T12:40:27.786Z,20.30
2023-05-04T12:46:22.628Z,20.50
2023-05-04T12:52:16.048Z,20.00
2023-05-04T12:58:11.145Z,20.10
2023-05-04T13:04:04.356Z,20.40
2023-05-04T13:09:57.392Z,20.30
2023-05-04T13:15:52.605Z,19.90
2023-05-04T13:21:45.633Z,19.60
2023-05-04T13:27:39.063Z,19.60
2023-05-04T13:33:34.997Z,20.00
2023-05-04T13:39:28.699Z,20.20
2023-05-04T13:45:23.131Z,20.80
2023-05-04T13:51:17.472Z,20.90
2023-05-04T13:57:10.459Z,21.70
2023-05-04T14:03:03.550Z,22.00
2023-05-04T14:08:58.315Z,21.30
2023-05-04T14:14:51.527Z,20.80
2023-05-04T14:20:44.520Z,20.30
2023-05-04T14:26:38.981Z,19.90
2023-05-04T14:32:32.138Z,19.90
2023-05-04T14:38:25.199Z,20.60
2023-05-04T14:44:20.053Z,20.50
2023-05-04T14:50:14.529Z,20.50
2023-05-04T14:56:08.242Z,20.20
2023-05-04T15:02:05.900Z,19.90
2023-05-04T15:07:59.557Z,19.70
2023-05-04T15:13:55.576Z,19.20
2023-05-04T15:19:50.179Z,19.00
2023-05-04T15:25:43.537Z,19.00
2023-05-04T15:31:37.023Z,18.90
2023-05-04T15:37:31.577Z,18.70
2023-05-04T15:43:24.539Z,18.70
2023-05-04T15:49:17.644Z,18.50
2023-05-04T15:55:23.550Z,18.40
2023-05-04T16:01:18.639Z,18.20
2023-05-04T16:07:11.869Z,18.20
2023-05-04T16:13:06.366Z,18.00
2023-05-04T16:18:59.667Z,17.60
2023-05-04T16:24:53.259Z,17.40
2023-05-04T16:30:50.352Z,17.40
2023-05-04T16:36:44.457Z,17.40
2023-05-04T16:42:37.455Z,17.30
2023-05-04T16:48:32.292Z,17.20
2023-05-04T16:54:25.810Z,16.90
2023-05-04T17:00:19.289Z,16.80
2023-05-04T17:06:13.665Z,16.70
2023-05-04T17:12:07.077Z,16.60
2023-05-04T17:18:00.236Z,16.40
2023-05-04T17:23:54.600Z,16.30
2023-05-04T17:29:47.664Z,16.10
2023-05-04T17:35:40.965Z,16.20
2023-05-04T17:41:35.471Z,16.10
2023-05-04T17:47:28.818Z,16.00
2023-05-04T17:53:21.911Z,15.90
2023-05-04T17:59:16.790Z,15.80
2023-05-04T18:05:10.509Z,15.80
2023-05-04T18:11:04.287Z,15.50
2023-05-04T18:16:59.170Z,15.60
2023-05-04T18:22:52.700Z,15.40
2023-05-04T18:28:45.661Z,15.30
2023-05-04T18:34:40.390Z,15.20
2023-05-04T18:40:33.802Z,14.90
2023-05-04T18:46:27.296Z,14.90
2023-05-04T18:52:22.657Z,14.80
2023-05-04T18:58:16.080Z,14.80
2023-05-04T19:04:09.163Z,14.70
2023-05-04T19:10:04.458Z,14.50
2023-05-04T19:15:57.576Z,14.30
2023-05-04T19:21:52.235Z,14.30
2023-05-04T19:27:48.038Z,14.40
2023-05-04T19:33:48.424Z,14.30
2023-05-04T19:39:42.444Z,14.20
2023-05-04T19:45:37.483Z,14.10
2023-05-04T19:51:30.998Z,14.00
2023-05-04T19:57:23.952Z,14.00
2023-05-04T20:03:18.625Z,14.00
2023-05-04T20:09:12.431Z,13.90
2023-05-04T20:15:07.291Z,13.80
2023-05-04T20:21:01.627Z,13.80
2023-05-04T20:26:55.070Z,13.80
2023-05-04T20:32:49.240Z,13.60
2023-05-04T20:38:44.027Z,13.70
2023-05-04T20:44:37.078Z,13.60
2023-05-04T20:50:30.685Z,13.50
2023-05-04T20:56:25.440Z,13.50
2023-05-04T21:02:18.882Z,13.40
2023-05-04T21:08:12.524Z,13.30
2023-05-04T21:14:06.904Z,13.30
2023-05-04T21:20:00.492Z,13.30
2023-05-04T21:26:01.825Z,13.20
2023-05-04T21:31:57.519Z,13.10
2023-05-04T21:37:50.969Z,13.10
2023-05-04T21:43:44.982Z,13.20
2023-05-04T21:49:39.580Z,13.10
2023-05-04T21:55:32.760Z,13.20
2023-05-04T22:01:26.830Z,13.10
2023-05-04T22:07:21.505Z,13.00
2023-05-04T22:13:14.985Z,12.90
2023-05-04T22:19:08.374Z,12.80
2023-05-04T22:25:02.900Z,12.90
2023-05-04T22:30:56.228Z,12.80
2023-05-04T22:36:49.580Z,12.70
2023-05-04T22:42:45.266Z,12.70
2023-05-04T22:48:38.441Z,12.70
2023-05-04T22:54:31.500Z,12.50
2023-05-04T23:00:26.435Z,12.50
2023-05-04T23:06:19.747Z,12.40
2023-05-04T23:12:12.956Z,12.40
2023-05-04T23:18:07.722Z,12.40
2023-05-04T23:24:01.021Z,12.30
2023-05-04T23:29:54.279Z,12.30
2023-05-04T23:35:48.705Z,12.30
2023-05-04T23:41:42.000Z,12.20
2023-05-04T23:47:35.288Z,12.30
2023-05-04T23:53:30.429Z,12.20
2023-05-04T23:59:23.640Z,12.20
